Time;durP1;ratioP1;P1;durP2;ratioP2;P2;SDS_P1;SDS_P2;PMS_P1;PMS_P2;Temp;Humidity;BMP_temperature;BMP_pressure;BME280_temperature;BME280_humidity;BME280_pressure;Samples;Min_cycle;Max_cycle;Signal;HPM_P1;HPM_P2
2022/07/08 00:00:52;;;;;;;15.38;3.20;;;;;;;;;;10279695;28;20460;-66
2022/07/08 00:05:49;;;;;;;17.83;2.85;;;;;;;;;;10268356;28;20045;-66
2022/07/08 00:10:46;;;;;;;15.43;3.65;;;;;;;;;;10289751;28;20491;-65
2022/07/08 00:15:42;;;;;;;14.55;3.20;;;;;;;;;;10268702;28;20067;-65
2022/07/08 00:20:39;;;;;;;16.05;2.72;;;;;;;;;;10262380;28;20044;-66
2022/07/08 00:25:35;;;;;;;16.70;2.33;;;;;;;;;;10279226;28;20140;-65
2022/07/08 00:30:32;;;;;;;17.98;3.13;;;;;;;;;;10275845;28;20071;-65
2022/07/08 00:35:28;;;;;;;14.57;2.38;;;;;;;;;;10269912;28;20076;-65
2022/07/08 00:40:24;;;;;;;15.88;2.03;;;;;;;;;;10283388;28;20067;-65
2022/07/08 00:45:20;;;;;;;10.52;2.25;;;;;;;;;;10271563;28;20124;-66
2022/07/08 00:50:17;;;;;;;9.40;2.30;;;;;;;;;;10274169;28;20044;-66
2022/07/08 00:55:14;;;;;;;17.08;3.25;;;;;;;;;;10272650;28;20128;-67
2022/07/08 01:00:10;;;;;;;14.90;2.53;;;;;;;;;;10279148;28;20052;-67
2022/07/08 01:05:08;;;;;;;14.93;2.15;;;;;;;;;;10270688;28;20049;-68
2022/07/08 01:10:05;;;;;;;12.20;2.03;;;;;;;;;;10279373;28;20056;-65
2022/07/08 01:15:01;;;;;;;10.98;1.75;;;;;;;;;;10274655;28;20515;-65
2022/07/08 01:20:03;;;;;;;13.53;2.13;;;;;;;;;;10260986;28;20049;-65
2022/07/08 01:24:59;;;;;;;11.50;1.95;;;;;;;;;;10239038;28;20059;-65
2022/07/08 01:29:56;;;;;;;21.23;2.47;;;;;;;;;;10250509;28;20493;-65
2022/07/08 01:34:53;;;;;;;10.65;1.95;;;;;;;;;;10250823;28;20079;-65
2022/07/08 01:39:49;;;;;;;9.25;1.92;;;;;;;;;;10261104;28;20068;-65
2022/07/08 01:44:45;;;;;;;12.30;1.95;;;;;;;;;;10251655;28;20084;-65
2022/07/08 01:49:41;;;;;;;15.93;2.33;;;;;;;;;;10259240;28;20064;-66
2022/07/08 01:54:38;;;;;;;13.55;2.47;;;;;;;;;;10257980;28;20140;-66
2022/07/08 01:59:34;;;;;;;15.98;2.53;;;;;;;;;;10248723;28;20069;-64
2022/07/08 02:04:30;;;;;;;14.00;2.30;;;;;;;;;;10249805;28;20459;-64
2022/07/08 02:09:27;;;;;;;12.65;2.05;;;;;;;;;;10244836;28;20144;-66
2022/07/08 02:14:23;;;;;;;12.73;2.38;;;;;;;;;;10272258;28;20495;-66
2022/07/08 02:19:19;;;;;;;11.25;1.65;;;;;;;;;;10258589;28;20045;-66
2022/07/08 02:24:15;;;;;;;9.13;2.00;;;;;;;;;;10254372;28;20076;-66
2022/07/08 02:29:12;;;;;;;11.45;2.00;;;;;;;;;;10271335;28;20068;-65
2022/07/08 02:34:08;;;;;;;12.52;2.17;;;;;;;;;;10274523;28;20123;-65
2022/07/08 02:39:04;;;;;;;13.82;1.77;;;;;;;;;;10278009;28;20076;-65
2022/07/08 02:44:01;;;;;;;8.35;1.80;;;;;;;;;;10260522;28;20561;-65
2022/07/08 02:48:57;;;;;;;12.52;2.88;;;;;;;;;;10263793;28;20053;-65
2022/07/08 02:53:53;;;;;;;12.35;1.83;;;;;;;;;;10272207;28;20409;-65
2022/07/08 02:58:50;;;;;;;10.48;1.70;;;;;;;;;;10287565;28;20099;-65
2022/07/08 03:03:46;;;;;;;13.02;2.08;;;;;;;;;;10280107;28;20497;-65
2022/07/08 03:08:42;;;;;;;8.35;1.75;;;;;;;;;;10268459;28;20103;-64
2022/07/08 03:13:39;;;;;;;18.25;4.07;;;;;;;;;;10288367;28;20052;-64
2022/07/08 03:18:35;;;;;;;12.73;2.13;;;;;;;;;;10280297;28;20045;-65
2022/07/08 03:23:32;;;;;;;9.68;1.70;;;;;;;;;;10286349;28;20412;-65
2022/07/08 03:28:28;;;;;;;15.00;3.00;;;;;;;;;;10287949;28;20065;-64
2022/07/08 03:33:25;;;;;;;13.77;2.00;;;;;;;;;;10284656;28;20049;-64
2022/07/08 03:38:21;;;;;;;8.93;1.48;;;;;;;;;;10300221;28;20389;-66
2022/07/08 03:43:18;;;;;;;12.45;1.98;;;;;;;;;;10260783;28;20049;-66
2022/07/08 03:48:14;;;;;;;11.82;2.05;;;;;;;;;;10261498;28;20596;-67
2022/07/08 03:53:10;;;;;;;10.77;2.20;;;;;;;;;;10294150;28;20040;-67
2022/07/08 03:58:07;;;;;;;13.52;1.80;;;;;;;;;;10289803;28;20069;-66
2022/07/08 04:03:03;;;;;;;11.07;1.90;;;;;;;;;;10277830;28;20155;-66
2022/07/08 04:07:59;;;;;;;15.32;1.90;;;;;;;;;;10271407;28;20724;-65
2022/07/08 04:12:56;;;;;;;14.77;2.50;;;;;;;;;;10263418;28;20868;-65
2022/07/08 04:17:52;;;;;;;16.58;2.63;;;;;;;;;;10256356;28;20109;-65
2022/07/08 04:22:49;;;;;;;13.90;1.83;;;;;;;;;;10264219;28;20045;-65
2022/07/08 04:27:45;;;;;;;13.77;2.33;;;;;;;;;;10253024;28;20554;-65
2022/07/08 04:32:42;;;;;;;6.68;1.70;;;;;;;;;;10254754;28;20109;-67
2022/07/08 04:37:38;;;;;;;10.30;2.33;;;;;;;;;;10252604;28;20046;-65
2022/07/08 04:42:36;;;;;;;13.98;2.63;;;;;;;;;;10258936;28;20037;-64
2022/07/08 04:47:33;;;;;;;7.93;1.38;;;;;;;;;;10256159;28;20047;-65
2022/07/08 04:52:29;;;;;;;13.15;2.30;;;;;;;;;;10278204;28;20049;-66
2022/07/08 04:57:25;;;;;;;14.18;1.95;;;;;;;;;;10274337;28;20049;-65
2022/07/08 05:02:22;;;;;;;6.90;1.65;;;;;;;;;;10250669;28;20148;-65
2022/07/08 05:07:18;;;;;;;10.77;1.52;;;;;;;;;;10245950;28;20057;-65
2022/07/08 05:12:15;;;;;;;10.13;1.60;;;;;;;;;;10259452;28;20595;-65
2022/07/08 05:17:11;;;;;;;11.63;2.38;;;;;;;;;;10250142;28;20102;-65
2022/07/08 05:22:08;;;;;;;13.00;2.08;;;;;;;;;;10253253;28;20501;-66
2022/07/08 05:27:06;;;;;;;9.80;1.80;;;;;;;;;;10236490;28;20437;-65
2022/07/08 05:32:02;;;;;;;12.25;2.00;;;;;;;;;;10272907;28;20386;-65
2022/07/08 05:36:59;;;;;;;11.30;1.75;;;;;;;;;;10253692;28;20489;-65
2022/07/08 05:41:55;;;;;;;12.77;1.42;;;;;;;;;;10242493;28;20064;-65
2022/07/08 05:46:52;;;;;;;17.20;2.45;;;;;;;;;;10248981;28;20513;-65
2022/07/08 05:51:48;;;;;;;8.45;1.75;;;;;;;;;;10237872;28;20143;-65
2022/07/08 05:56:44;;;;;;;7.30;1.30;;;;;;;;;;10248828;28;20048;-65
2022/07/08 06:01:40;;;;;;;9.60;1.30;;;;;;;;;;10247982;28;20095;-66
2022/07/08 06:06:37;;;;;;;12.63;2.00;;;;;;;;;;10252077;28;20417;-66
2022/07/08 06:11:33;;;;;;;7.88;1.67;;;;;;;;;;10240344;28;20562;-66
2022/07/08 06:16:30;;;;;;;6.78;1.40;;;;;;;;;;10219047;28;20122;-66
2022/07/08 06:21:26;;;;;;;10.43;1.58;;;;;;;;;;10258482;28;20508;-66
2022/07/08 06:26:23;;;;;;;8.60;1.48;;;;;;;;;;10275154;28;20068;-66
2022/07/08 06:31:19;;;;;;;12.60;2.10;;;;;;;;;;10267350;28;20037;-65
2022/07/08 06:36:16;;;;;;;11.77;2.75;;;;;;;;;;10271722;28;20045;-66
2022/07/08 06:41:12;;;;;;;7.55;2.45;;;;;;;;;;10256073;28;20064;-67
2022/07/08 06:46:09;;;;;;;15.10;2.40;;;;;;;;;;10257642;28;20049;-67
2022/07/08 06:51:05;;;;;;;13.77;1.73;;;;;;;;;;10261556;28;20059;-67
2022/07/08 06:56:01;;;;;;;9.60;1.92;;;;;;;;;;10261881;28;20041;-67
2022/07/08 07:00:58;;;;;;;8.02;1.60;;;;;;;;;;10265347;28;20806;-67
2022/07/08 07:05:54;;;;;;;7.95;1.55;;;;;;;;;;10253112;28;20122;-67
2022/07/08 07:10:51;;;;;;;12.23;1.50;;;;;;;;;;10263209;28;20077;-67
2022/07/08 07:15:47;;;;;;;9.13;1.92;;;;;;;;;;10258797;28;20045;-67
2022/07/08 07:20:43;;;;;;;10.70;1.52;;;;;;;;;;10272640;28;20099;-66
2022/07/08 07:25:40;;;;;;;9.82;1.70;;;;;;;;;;10280110;28;20575;-67
2022/07/08 07:30:36;;;;;;;9.32;1.42;;;;;;;;;;10265345;28;20104;-67
2022/07/08 07:35:32;;;;;;;8.30;1.63;;;;;;;;;;10239700;28;20048;-67
2022/07/08 07:40:29;;;;;;;8.90;1.85;;;;;;;;;;10281619;28;20068;-67
2022/07/08 07:45:25;;;;;;;9.40;1.80;;;;;;;;;;10277302;28;20132;-66
2022/07/08 07:50:22;;;;;;;11.43;1.75;;;;;;;;;;10266329;28;20097;-67
2022/07/08 07:55:18;;;;;;;13.48;1.75;;;;;;;;;;10278069;28;20048;-67
2022/07/08 08:00:15;;;;;;;8.30;2.10;;;;;;;;;;10261852;28;20072;-67
2022/07/08 08:05:13;;;;;;;11.95;2.33;;;;;;;;;;10256693;28;20045;-67
2022/07/08 08:10:11;;;;;;;10.02;1.40;;;;;;;;;;10245837;28;20477;-67
2022/07/08 08:15:07;;;;;;;14.32;3.30;;;;;;;;;;10258064;28;20095;-66
2022/07/08 08:20:05;;;;;;;12.35;2.45;;;;;;;;;;10280892;28;20056;-66
2022/07/08 08:25:02;;;;;;;11.10;2.30;;;;;;;;;;10264738;28;20059;-67
2022/07/08 08:29:58;;;;;;;10.27;2.45;;;;;;;;;;10251274;28;20129;-67
2022/07/08 08:34:55;;;;;;;10.73;2.38;;;;;;;;;;10263569;28;20044;-67
2022/07/08 08:39:52;;;;;;;7.32;2.20;;;;;;;;;;10241834;28;20041;-68
2022/07/08 08:44:49;;;;;;;10.40;2.22;;;;;;;;;;10272575;28;20131;-67
2022/07/08 08:49:47;;;;;;;9.18;2.30;;;;;;;;;;10247531;28;20083;-65
2022/07/08 08:54:45;;;;;;;9.55;2.60;;;;;;;;;;10268071;28;20102;-66
2022/07/08 08:59:41;;;;;;;9.48;3.28;;;;;;;;;;10272798;28;20041;-66
2022/07/08 09:04:38;;;;;;;6.47;1.85;;;;;;;;;;10260301;28;20094;-65
2022/07/08 09:09:34;;;;;;;9.45;2.17;;;;;;;;;;10278676;28;20156;-66
2022/07/08 09:14:30;;;;;;;11.48;2.60;;;;;;;;;;10249064;28;20127;-66
2022/07/08 09:19:27;;;;;;;8.45;2.75;;;;;;;;;;10252965;28;20576;-66
2022/07/08 09:24:23;;;;;;;8.25;2.53;;;;;;;;;;10244984;28;20041;-66
2022/07/08 09:29:19;;;;;;;13.70;3.17;;;;;;;;;;10227698;28;20561;-67
2022/07/08 09:34:19;;;;;;;13.20;2.75;;;;;;;;;;10236476;28;20136;-67
2022/07/08 09:39:26;;;;;;;6.15;2.17;;;;;;;;;;10232424;28;20061;-66
2022/07/08 09:44:23;;;;;;;6.75;1.92;;;;;;;;;;10211327;28;20052;-67
2022/07/08 09:49:26;;;;;;;7.63;2.45;;;;;;;;;;10228960;28;20053;-66
2022/07/08 09:54:23;;;;;;;5.50;1.67;;;;;;;;;;10200527;28;20132;-67
2022/07/08 09:59:19;;;;;;;4.35;1.33;;;;;;;;;;10198482;28;20160;-66
2022/07/08 10:04:16;;;;;;;4.93;1.30;;;;;;;;;;10210320;28;20395;-66
2022/07/08 10:09:14;;;;;;;4.68;1.10;;;;;;;;;;10211943;28;20128;-67
2022/07/08 10:14:10;;;;;;;4.53;1.35;;;;;;;;;;10197684;28;20069;-67
2022/07/08 10:19:12;;;;;;;3.88;1.00;;;;;;;;;;10200330;28;20510;-66
2022/07/08 10:24:10;;;;;;;5.57;1.20;;;;;;;;;;10219772;28;20136;-66
2022/07/08 10:29:08;;;;;;;2.92;1.00;;;;;;;;;;10220946;28;20041;-66
2022/07/08 10:34:07;;;;;;;2.97;0.95;;;;;;;;;;10215683;28;20053;-66
2022/07/08 10:39:03;;;;;;;3.63;1.20;;;;;;;;;;10199119;28;20069;-67
2022/07/08 10:44:02;;;;;;;3.17;1.23;;;;;;;;;;10213523;28;20327;-67
2022/07/08 10:49:00;;;;;;;4.18;1.25;;;;;;;;;;10197939;28;20038;-65
2022/07/08 10:53:57;;;;;;;3.53;0.93;;;;;;;;;;10198437;28;20077;-66
2022/07/08 10:59:12;;;;;;;5.10;0.90;;;;;;;;;;10200561;28;20069;-68
2022/07/08 11:04:25;;;;;;;3.80;1.08;;;;;;;;;;10201013;28;20240;-66
2022/07/08 11:09:23;;;;;;;6.10;1.50;;;;;;;;;;10225042;28;20137;-66
2022/07/08 11:14:19;;;;;;;8.60;1.60;;;;;;;;;;10218213;28;20503;-66
2022/07/08 11:19:16;;;;;;;4.93;1.40;;;;;;;;;;10226770;28;20072;-66
2022/07/08 11:24:12;;;;;;;4.53;1.33;;;;;;;;;;10223876;28;20050;-66
2022/07/08 11:29:15;;;;;;;5.65;1.20;;;;;;;;;;10211612;28;20072;-67
2022/07/08 11:34:18;;;;;;;7.93;1.90;;;;;;;;;;10227179;28;20497;-68
2022/07/08 11:39:16;;;;;;;5.53;1.20;;;;;;;;;;10214174;28;20058;-67
2022/07/08 11:44:12;;;;;;;4.15;1.10;;;;;;;;;;10219626;28;20143;-67
2022/07/08 11:49:09;;;;;;;3.60;0.90;;;;;;;;;;10214212;28;20137;-67
2022/07/08 11:54:06;;;;;;;2.75;0.65;;;;;;;;;;10226517;28;20080;-67
2022/07/08 11:59:02;;;;;;;3.47;1.17;;;;;;;;;;10231807;28;20124;-67
2022/07/08 12:03:59;;;;;;;4.72;1.30;;;;;;;;;;10217846;28;20069;-67
2022/07/08 12:08:56;;;;;;;5.25;1.10;;;;;;;;;;10230036;28;20049;-67
2022/07/08 12:13:53;;;;;;;4.32;0.95;;;;;;;;;;10230451;28;20100;-67
2022/07/08 12:18:49;;;;;;;4.22;0.85;;;;;;;;;;10229615;28;20050;-67
2022/07/08 12:23:56;;;;;;;5.70;1.20;;;;;;;;;;10224588;28;20053;-67
2022/07/08 12:28:53;;;;;;;5.28;1.20;;;;;;;;;;10228452;28;20560;-67
2022/07/08 12:34:05;;;;;;;5.05;1.30;;;;;;;;;;10216568;28;20081;-67
2022/07/08 12:39:02;;;;;;;;;;;;;;;;;;10216545;28;20081;-66
2022/07/08 12:43:58;;;;;;;4.85;1.35;;;;;;;;;;10219528;28;20004;-66
2022/07/08 12:48:54;;;;;;;7.13;1.40;;;;;;;;;;10212140;28;20789;-67
2022/07/08 12:53:51;;;;;;;8.45;1.20;;;;;;;;;;10210315;28;20695;-67
2022/07/08 12:58:47;;;;;;;6.75;1.60;;;;;;;;;;10217105;28;20099;-67
2022/07/08 13:03:43;;;;;;;7.47;1.83;;;;;;;;;;10222617;28;20120;-67
2022/07/08 13:08:40;;;;;;;6.75;1.83;;;;;;;;;;10217293;28;20399;-67
2022/07/08 13:13:36;;;;;;;7.15;1.38;;;;;;;;;;10220959;28;20041;-67
2022/07/08 13:18:33;;;;;;;5.93;1.10;;;;;;;;;;10225547;28;20053;-67
2022/07/08 13:23:29;;;;;;;5.40;1.63;;;;;;;;;;10225016;28;20838;-67
2022/07/08 13:28:26;;;;;;;5.10;1.30;;;;;;;;;;10223480;28;20037;-67
2022/07/08 13:33:23;;;;;;;5.90;1.70;;;;;;;;;;10227936;28;20119;-67
2022/07/08 13:38:19;;;;;;;6.20;1.35;;;;;;;;;;10234473;28;20157;-67
2022/07/08 13:43:16;;;;;;;7.07;1.85;;;;;;;;;;10222446;28;20575;-67
2022/07/08 13:48:12;;;;;;;11.65;2.45;;;;;;;;;;10221167;28;20722;-67
2022/07/08 13:53:09;;;;;;;6.50;1.50;;;;;;;;;;10226059;28;20091;-67
2022/07/08 13:58:05;;;;;;;6.78;1.10;;;;;;;;;;10209258;28;20108;-67
2022/07/08 14:03:01;;;;;;;5.40;1.20;;;;;;;;;;10212996;28;20152;-67
2022/07/08 14:07:58;;;;;;;6.68;1.02;;;;;;;;;;10206091;28;21437;-67
2022/07/08 14:13:14;;;;;;;6.57;0.90;;;;;;;;;;10214301;28;20148;-66
2022/07/08 14:18:11;;;;;;;3.28;1.15;;;;;;;;;;10205917;28;20081;-67
2022/07/08 14:23:07;;;;;;;5.60;0.93;;;;;;;;;;10203584;28;20505;-67
2022/07/08 14:28:04;;;;;;;8.27;1.30;;;;;;;;;;10206793;28;20543;-67
2022/07/08 14:33:00;;;;;;;7.78;2.42;;;;;;;;;;10193273;28;20156;-71
2022/07/08 14:37:58;;;;;;;7.85;1.20;;;;;;;;;;10198206;28;20107;-68
2022/07/08 14:42:55;;;;;;;5.78;1.38;;;;;;;;;;10196740;28;20505;-67
2022/07/08 14:47:51;;;;;;;5.53;1.63;;;;;;;;;;10203817;28;20038;-67
2022/07/08 14:52:48;;;;;;;5.88;1.65;;;;;;;;;;10198669;28;20107;-68
2022/07/08 14:57:47;;;;;;;3.95;0.98;;;;;;;;;;10210204;28;20131;-67
2022/07/08 15:02:43;;;;;;;8.82;1.10;;;;;;;;;;10207982;28;20181;-68
2022/07/08 15:07:40;;;;;;;4.05;1.05;;;;;;;;;;10211579;28;20046;-67
2022/07/08 15:12:36;;;;;;;7.93;1.30;;;;;;;;;;10214304;28;20454;-68
2022/07/08 15:17:33;;;;;;;6.82;1.10;;;;;;;;;;10209549;28;20163;-67
2022/07/08 15:22:29;;;;;;;5.82;1.48;;;;;;;;;;10207805;28;20092;-69
2022/07/08 15:27:25;;;;;;;5.78;1.30;;;;;;;;;;10207843;28;20120;-67
2022/07/08 15:32:22;;;;;;;6.93;1.13;;;;;;;;;;10210738;28;20132;-68
2022/07/08 15:37:18;;;;;;;11.40;1.88;;;;;;;;;;10222387;28;20091;-68
2022/07/08 15:42:14;;;;;;;9.70;1.20;;;;;;;;;;10221729;28;20041;-68
2022/07/08 15:47:11;;;;;;;7.88;1.50;;;;;;;;;;10220067;28;20049;-68
2022/07/08 15:52:08;;;;;;;6.22;1.30;;;;;;;;;;10216559;28;20517;-68
2022/07/08 15:57:04;;;;;;;8.85;1.55;;;;;;;;;;10198927;28;20053;-67
2022/07/08 16:02:01;;;;;;;8.50;1.63;;;;;;;;;;10206270;28;20537;-68
2022/07/08 16:06:58;;;;;;;9.10;1.90;;;;;;;;;;10200287;28;20042;-69
2022/07/08 16:11:54;;;;;;;6.32;1.58;;;;;;;;;;10218210;28;20052;-67
2022/07/08 16:16:51;;;;;;;9.10;2.15;;;;;;;;;;10226085;28;20601;-67
2022/07/08 16:21:48;;;;;;;9.32;1.80;;;;;;;;;;10226120;28;20057;-67
2022/07/08 16:26:45;;;;;;;7.53;1.55;;;;;;;;;;10228993;28;20041;-67
2022/07/08 16:31:41;;;;;;;5.57;2.03;;;;;;;;;;10209598;28;20074;-67
2022/07/08 16:36:38;;;;;;;7.53;1.65;;;;;;;;;;10213562;28;20052;-67
2022/07/08 16:41:34;;;;;;;22.75;12.32;;;;;;;;;;10216836;28;20053;-67
2022/07/08 16:46:30;;;;;;;26.05;9.15;;;;;;;;;;10217826;28;20102;-68
2022/07/08 16:51:27;;;;;;;8.30;1.23;;;;;;;;;;10217448;28;20045;-67
2022/07/08 16:56:24;;;;;;;8.98;3.55;;;;;;;;;;10212596;28;20073;-67
2022/07/08 17:01:21;;;;;;;12.27;5.50;;;;;;;;;;10211214;28;20067;-67
2022/07/08 17:06:18;;;;;;;8.30;2.75;;;;;;;;;;10224098;28;20100;-66
2022/07/08 17:11:14;;;;;;;8.85;1.85;;;;;;;;;;10227010;28;20605;-66
2022/07/08 17:16:11;;;;;;;8.05;1.77;;;;;;;;;;10222068;28;20119;-66
2022/07/08 17:21:09;;;;;;;7.70;2.75;;;;;;;;;;10221932;28;20046;-67
2022/07/08 17:26:05;;;;;;;8.82;1.60;;;;;;;;;;10216356;28;20081;-67
2022/07/08 17:31:02;;;;;;;8.57;1.55;;;;;;;;;;10217771;28;20061;-67
2022/07/08 17:35:58;;;;;;;8.35;2.60;;;;;;;;;;10211063;28;20057;-67
2022/07/08 17:40:55;;;;;;;6.43;1.38;;;;;;;;;;10229941;28;20142;-67
2022/07/08 17:45:52;;;;;;;7.00;2.17;;;;;;;;;;10207169;28;20045;-68
2022/07/08 17:50:48;;;;;;;5.70;1.42;;;;;;;;;;10247614;28;20041;-67
2022/07/08 17:55:45;;;;;;;7.18;1.75;;;;;;;;;;10234402;28;20489;-68
2022/07/08 18:00:41;;;;;;;5.70;1.88;;;;;;;;;;10224308;28;20535;-67
2022/07/08 18:05:37;;;;;;;9.50;2.83;;;;;;;;;;10240892;28;20049;-67
2022/07/08 18:10:34;;;;;;;12.20;3.17;;;;;;;;;;10232939;28;20106;-68
2022/07/08 18:15:30;;;;;;;18.42;4.00;;;;;;;;;;10249204;28;20052;-68
2022/07/08 18:20:27;;;;;;;6.68;1.83;;;;;;;;;;10254328;28;20116;-67
2022/07/08 18:25:23;;;;;;;6.60;1.50;;;;;;;;;;10257007;28;20090;-67
2022/07/08 18:30:20;;;;;;;7.78;1.80;;;;;;;;;;10258923;28;20050;-67
2022/07/08 18:35:16;;;;;;;14.10;1.77;;;;;;;;;;10265618;28;20050;-67
2022/07/08 18:40:15;;;;;;;6.75;1.63;;;;;;;;;;10258722;28;20077;-68
2022/07/08 18:45:11;;;;;;;9.52;2.20;;;;;;;;;;10261631;28;20109;-67
2022/07/08 18:50:08;;;;;;;7.90;2.17;;;;;;;;;;10257036;28;20566;-67
2022/07/08 18:55:04;;;;;;;9.55;2.25;;;;;;;;;;10283370;28;20052;-67
2022/07/08 19:00:03;;;;;;;10.57;2.45;;;;;;;;;;10257985;28;20088;-67
2022/07/08 19:05:05;;;;;;;9.02;2.35;;;;;;;;;;10211162;28;20044;-68
2022/07/08 19:10:02;;;;;;;7.72;1.92;;;;;;;;;;10278053;28;20499;-67
2022/07/08 19:14:58;;;;;;;8.40;2.13;;;;;;;;;;10276044;28;20048;-67
2022/07/08 19:19:54;;;;;;;19.58;3.15;;;;;;;;;;10264767;28;20080;-67
2022/07/08 19:24:51;;;;;;;8.63;1.98;;;;;;;;;;10288726;28;20807;-68
2022/07/08 19:29:48;;;;;;;8.45;2.30;;;;;;;;;;10274053;28;20037;-69
2022/07/08 19:34:44;;;;;;;11.30;3.03;;;;;;;;;;10282177;28;20036;-68
2022/07/08 19:39:41;;;;;;;13.43;3.25;;;;;;;;;;10267214;28;20068;-68
2022/07/08 19:44:37;;;;;;;10.85;2.60;;;;;;;;;;10208351;28;20049;-67
2022/07/08 19:49:34;;;;;;;11.75;3.25;;;;;;;;;;10221672;28;20038;-67
2022/07/08 19:54:31;;;;;;;10.88;2.28;;;;;;;;;;10219570;28;20049;-67
2022/07/08 19:59:27;;;;;;;10.32;2.50;;;;;;;;;;10223695;28;20568;-67
2022/07/08 20:04:23;;;;;;;16.38;3.10;;;;;;;;;;10238251;28;20045;-67
2022/07/08 20:09:20;;;;;;;14.35;2.80;;;;;;;;;;10235154;28;20148;-67
2022/07/08 20:14:16;;;;;;;9.75;2.17;;;;;;;;;;10239825;28;20111;-67
2022/07/08 20:19:12;;;;;;;14.77;4.18;;;;;;;;;;10228060;28;20137;-67
2022/07/08 20:24:09;;;;;;;10.63;2.85;;;;;;;;;;10218638;28;20144;-67
2022/07/08 20:29:05;;;;;;;11.00;2.83;;;;;;;;;;10223662;28;20068;-68
2022/07/08 20:34:02;;;;;;;8.77;2.88;;;;;;;;;;10209371;28;20045;-67
2022/07/08 20:38:58;;;;;;;10.70;2.70;;;;;;;;;;10213176;28;20507;-66
2022/07/08 20:43:54;;;;;;;11.57;2.50;;;;;;;;;;10223890;28;20139;-67
2022/07/08 20:48:51;;;;;;;7.22;2.20;;;;;;;;;;10206988;28;20037;-69
2022/07/08 20:53:47;;;;;;;11.73;2.67;;;;;;;;;;10228399;28;20081;-68
2022/07/08 20:58:43;;;;;;;8.77;2.70;;;;;;;;;;10222524;28;20132;-68
2022/07/08 21:03:40;;;;;;;7.40;2.47;;;;;;;;;;10215832;28;20073;-67
2022/07/08 21:08:36;;;;;;;17.10;3.35;;;;;;;;;;10222846;28;20125;-67
2022/07/08 21:13:32;;;;;;;9.73;2.67;;;;;;;;;;10217210;28;20065;-68
2022/07/08 21:18:29;;;;;;;12.57;2.83;;;;;;;;;;10210499;28;20084;-68
2022/07/08 21:23:31;;;;;;;12.98;3.33;;;;;;;;;;10211734;28;20041;-68
2022/07/08 21:28:27;;;;;;;15.90;3.22;;;;;;;;;;10229444;28;20073;-69
2022/07/08 21:33:23;;;;;;;12.73;3.25;;;;;;;;;;10237562;28;20041;-68
2022/07/08 21:38:20;;;;;;;12.15;4.07;;;;;;;;;;10232136;28;20051;-68
2022/07/08 21:43:16;;;;;;;9.88;2.75;;;;;;;;;;10230810;28;20052;-68
2022/07/08 21:48:12;;;;;;;11.82;3.38;;;;;;;;;;10250740;28;20072;-66
2022/07/08 21:53:09;;;;;;;12.40;3.25;;;;;;;;;;10273349;28;20136;-66
2022/07/08 21:58:05;;;;;;;14.95;3.83;;;;;;;;;;10268682;28;20085;-67
2022/07/08 22:03:01;;;;;;;10.27;3.47;;;;;;;;;;10268018;28;20079;-67
2022/07/08 22:07:58;;;;;;;29.25;4.20;;;;;;;;;;10267869;28;20045;-67
2022/07/08 22:12:55;;;;;;;10.75;3.90;;;;;;;;;;10269701;28;20634;-68
2022/07/08 22:17:54;;;;;;;14.85;3.28;;;;;;;;;;10257095;28;20065;-68
2022/07/08 22:22:50;;;;;;;15.43;3.50;;;;;;;;;;10267236;28;20045;-67
2022/07/08 22:27:47;;;;;;;14.43;4.00;;;;;;;;;;10262930;28;20110;-67
2022/07/08 22:32:44;;;;;;;16.88;4.50;;;;;;;;;;10273190;28;20045;-66
2022/07/08 22:37:40;;;;;;;14.30;3.42;;;;;;;;;;10274395;28;20068;-67
2022/07/08 22:42:36;;;;;;;15.55;4.80;;;;;;;;;;10274146;28;20107;-67
2022/07/08 22:47:33;;;;;;;13.55;2.97;;;;;;;;;;10265284;28;20465;-67
2022/07/08 22:52:29;;;;;;;12.57;3.15;;;;;;;;;;10272856;28;20544;-67
2022/07/08 22:57:26;;;;;;;15.45;3.65;;;;;;;;;;10269254;28;20088;-67
2022/07/08 23:02:22;;;;;;;13.07;3.30;;;;;;;;;;10261575;28;20046;-69
2022/07/08 23:07:19;;;;;;;12.57;3.10;;;;;;;;;;10269112;28;20517;-66
2022/07/08 23:12:15;;;;;;;11.65;3.45;;;;;;;;;;10266787;28;20091;-66
2022/07/08 23:17:11;;;;;;;15.32;3.38;;;;;;;;;;10262293;28;20072;-67
2022/07/08 23:22:07;;;;;;;11.10;3.53;;;;;;;;;;10273658;28;20118;-67
2022/07/08 23:27:04;;;;;;;10.68;2.83;;;;;;;;;;10270051;28;20084;-67
2022/07/08 23:32:00;;;;;;;10.55;3.55;;;;;;;;;;10270506;28;20080;-66
2022/07/08 23:36:57;;;;;;;11.27;3.63;;;;;;;;;;10266907;28;20045;-66
2022/07/08 23:41:53;;;;;;;11.05;3.40;;;;;;;;;;10278252;28;20124;-66
2022/07/08 23:46:49;;;;;;;10.45;3.55;;;;;;;;;;10269907;28;20398;-67
2022/07/08 23:51:45;;;;;;;11.70;3.30;;;;;;;;;;10282885;28;20040;-68
2022/07/08 23:56:42;;;;;;;9.43;2.83;;;;;;;;;;10266086;28;20636;-68
